KOMA/OMA METAR and TAF weather

Enter ICAO airport designator
Station Type Date Time Source
KOMA METAR 2023/02/04 01:52 UTC NOAA

KOMA 040152Z 16011KT 10SM FEW250 M06/M15 A3026 RMK AO2 SLP264 T10561150


Station Type Date Time Source
KOMA Decoded METAR 2023/02/04 01:52 UTC NOAA

OMAHA EPPLEY AIRFIELD, NE, United States (KOMA) 41-18N 095-54W 312M
Feb 03, 2023 - 08:52 PM EST / 2023.02.04 0152 UTC
Wind: from the SSE (160 degrees) at 13 MPH (11 KT):0
Visibility: 10 mile(s):0
Sky conditions: mostly clear
Temperature: 21.9 F (-5.6 C)
Windchill: 10 F (-12 C):1
Dew Point: 5.0 F (-15.0 C)
Relative Humidity: 47%
Pressure (altimeter): 30.26 in. Hg (1024 hPa)
ob: KOMA 040152Z 16011KT 10SM FEW250 M06/M15 A3026 RMK AO2 SLP264 T10561150
cycle: 2

Station Type Date Time Source
KOMA TAF 2023/02/03 18:24 UTC NOAA

TAF KOMA 031722Z 0318/0418 16013KT P6SM SCT035
FM040100 15010KT P6SM SCT250
FM040300 15010KT P6SM SCT250 WS020/24035KT
FM040900 16007KT P6SM SKC

Example: see airport list